sensor_id;sensor_type;location;lat;lon;timestamp;temperature;humidity
17992;DHT22;9121;50.926;5.340;2023-03-01T00:02:06;1.90;1.00
17992;DHT22;9121;50.926;5.340;2023-03-01T00:04:33;1.90;1.00
17992;DHT22;9121;50.926;5.340;2023-03-01T00:07:01;1.90;1.00
17992;DHT22;9121;50.926;5.340;2023-03-01T00:09:28;1.90;1.00
17992;DHT22;9121;50.926;5.340;2023-03-01T00:11:56;2.00;1.00
17992;DHT22;9121;50.926;5.340;2023-03-01T00:14:23;2.00;1.00
17992;DHT22;9121;50.926;5.340;2023-03-01T00:16:50;2.10;1.00
17992;DHT22;9121;50.926;5.340;2023-03-01T00:19:19;2.10;1.00
17992;DHT22;9121;50.926;5.340;2023-03-01T00:21:47;2.10;1.00
17992;DHT22;9121;50.926;5.340;2023-03-01T00:24:15;2.20;1.00
17992;DHT22;9121;50.926;5.340;2023-03-01T00:26:42;2.20;1.00
17992;DHT22;9121;50.926;5.340;2023-03-01T00:29:10;2.10;1.00
17992;DHT22;9121;50.926;5.340;2023-03-01T00:31:37;2.20;1.00
17992;DHT22;9121;50.926;5.340;2023-03-01T00:34:05;2.10;1.00
17992;DHT22;9121;50.926;5.340;2023-03-01T00:36:34;2.10;1.00
17992;DHT22;9121;50.926;5.340;2023-03-01T00:39:02;2.10;1.00
17992;DHT22;9121;50.926;5.340;2023-03-01T00:41:29;2.10;1.00
17992;DHT22;9121;50.926;5.340;2023-03-01T00:43:56;2.10;1.00
17992;DHT22;9121;50.926;5.340;2023-03-01T00:46:26;2.10;1.00
17992;DHT22;9121;50.926;5.340;2023-03-01T00:48:55;2.00;1.00
17992;DHT22;9121;50.926;5.340;2023-03-01T00:51:24;2.00;1.00
17992;DHT22;9121;50.926;5.340;2023-03-01T00:53:51;1.90;1.00
17992;DHT22;9121;50.926;5.340;2023-03-01T00:56:19;1.80;1.00
17992;DHT22;9121;50.926;5.340;2023-03-01T00:58:46;1.70;1.00
17992;DHT22;9121;50.926;5.340;2023-03-01T01:01:16;1.70;1.00
17992;DHT22;9121;50.926;5.340;2023-03-01T01:03:49;1.70;1.00
17992;DHT22;9121;50.926;5.340;2023-03-01T01:06:18;1.60;1.00
17992;DHT22;9121;50.926;5.340;2023-03-01T01:08:45;1.50;1.00
17992;DHT22;9121;50.926;5.340;2023-03-01T01:11:12;1.50;1.00
17992;DHT22;9121;50.926;5.340;2023-03-01T01:13:40;1.50;1.00
17992;DHT22;9121;50.926;5.340;2023-03-01T01:16:07;1.60;1.00
17992;DHT22;9121;50.926;5.340;2023-03-01T01:18:34;1.60;1.00
17992;DHT22;9121;50.926;5.340;2023-03-01T01:21:08;1.60;1.00
17992;DHT22;9121;50.926;5.340;2023-03-01T01:23:37;1.60;1.00
17992;DHT22;9121;50.926;5.340;2023-03-01T01:26:05;1.60;1.00
17992;DHT22;9121;50.926;5.340;2023-03-01T01:28:32;1.60;1.00
17992;DHT22;9121;50.926;5.340;2023-03-01T01:30:59;1.60;1.00
17992;DHT22;9121;50.926;5.340;2023-03-01T01:33:27;1.50;1.00
17992;DHT22;9121;50.926;5.340;2023-03-01T01:35:54;1.50;1.00
17992;DHT22;9121;50.926;5.340;2023-03-01T01:38:22;1.40;1.00
17992;DHT22;9121;50.926;5.340;2023-03-01T01:40:50;1.50;1.00
17992;DHT22;9121;50.926;5.340;2023-03-01T01:43:20;1.50;1.00
17992;DHT22;9121;50.926;5.340;2023-03-01T01:45:47;1.40;1.00
17992;DHT22;9121;50.926;5.340;2023-03-01T01:48:17;1.40;1.00
17992;DHT22;9121;50.926;5.340;2023-03-01T01:50:46;1.30;1.00
17992;DHT22;9121;50.926;5.340;2023-03-01T01:53:18;1.30;1.00
17992;DHT22;9121;50.926;5.340;2023-03-01T01:55:56;1.30;1.00
17992;DHT22;9121;50.926;5.340;2023-03-01T01:58:25;1.30;1.00
17992;DHT22;9121;50.926;5.340;2023-03-01T02:00:54;1.30;1.00
17992;DHT22;9121;50.926;5.340;2023-03-01T02:03:25;1.30;1.00
17992;DHT22;9121;50.926;5.340;2023-03-01T02:06:00;1.20;1.00
17992;DHT22;9121;50.926;5.340;2023-03-01T02:08:32;1.30;1.00
17992;DHT22;9121;50.926;5.340;2023-03-01T02:11:02;1.20;1.00
17992;DHT22;9121;50.926;5.340;2023-03-01T02:13:30;1.30;1.00
17992;DHT22;9121;50.926;5.340;2023-03-01T02:15:58;1.30;1.00
17992;DHT22;9121;50.926;5.340;2023-03-01T02:18:26;1.30;1.00
17992;DHT22;9121;50.926;5.340;2023-03-01T02:21:03;1.40;1.00
17992;DHT22;9121;50.926;5.340;2023-03-01T02:23:33;1.40;1.00
17992;DHT22;9121;50.926;5.340;2023-03-01T02:26:05;1.40;1.00
17992;DHT22;9121;50.926;5.340;2023-03-01T02:28:35;1.40;1.00
17992;DHT22;9121;50.926;5.340;2023-03-01T02:31:05;1.40;1.00
17992;DHT22;9121;50.926;5.340;2023-03-01T02:33:51;1.30;1.00
17992;DHT22;9121;50.926;5.340;2023-03-01T02:36:21;1.30;1.00
17992;DHT22;9121;50.926;5.340;2023-03-01T02:38:52;1.20;1.00
17992;DHT22;9121;50.926;5.340;2023-03-01T02:41:21;1.20;1.00
17992;DHT22;9121;50.926;5.340;2023-03-01T02:43:50;1.20;1.00
17992;DHT22;9121;50.926;5.340;2023-03-01T02:46:19;1.10;1.00
17992;DHT22;9121;50.926;5.340;2023-03-01T02:48:49;1.00;1.00
17992;DHT22;9121;50.926;5.340;2023-03-01T02:51:38;1.00;1.00
17992;DHT22;9121;50.926;5.340;2023-03-01T02:54:15;1.00;1.00
17992;DHT22;9121;50.926;5.340;2023-03-01T02:56:45;1.00;1.00
17992;DHT22;9121;50.926;5.340;2023-03-01T02:59:19;0.90;1.00
17992;DHT22;9121;50.926;5.340;2023-03-01T03:01:47;0.80;1.00
17992;DHT22;9121;50.926;5.340;2023-03-01T03:04:16;0.80;1.00
17992;DHT22;9121;50.926;5.340;2023-03-01T03:06:44;0.70;1.00
17992;DHT22;9121;50.926;5.340;2023-03-01T03:09:12;0.60;1.00
17992;DHT22;9121;50.926;5.340;2023-03-01T03:11:40;0.60;1.00
17992;DHT22;9121;50.926;5.340;2023-03-01T03:14:08;0.60;1.00
17992;DHT22;9121;50.926;5.340;2023-03-01T03:16:41;0.60;1.00
17992;DHT22;9121;50.926;5.340;2023-03-01T03:19:08;0.60;1.00
17992;DHT22;9121;50.926;5.340;2023-03-01T03:21:35;0.70;1.00
17992;DHT22;9121;50.926;5.340;2023-03-01T03:24:03;0.60;1.00
17992;DHT22;9121;50.926;5.340;2023-03-01T03:26:30;0.60;1.00
17992;DHT22;9121;50.926;5.340;2023-03-01T03:28:58;0.70;1.00
17992;DHT22;9121;50.926;5.340;2023-03-01T03:31:25;0.60;1.00
17992;DHT22;9121;50.926;5.340;2023-03-01T03:33:53;0.60;1.00
17992;DHT22;9121;50.926;5.340;2023-03-01T03:36:22;0.60;1.00
17992;DHT22;9121;50.926;5.340;2023-03-01T03:38:49;0.60;1.00
17992;DHT22;9121;50.926;5.340;2023-03-01T03:41:17;0.60;1.00
17992;DHT22;9121;50.926;5.340;2023-03-01T03:43:44;0.50;1.00
17992;DHT22;9121;50.926;5.340;2023-03-01T03:46:12;0.50;1.00
17992;DHT22;9121;50.926;5.340;2023-03-01T03:48:41;0.40;1.00
17992;DHT22;9121;50.926;5.340;2023-03-01T03:51:11;0.50;1.00
17992;DHT22;9121;50.926;5.340;2023-03-01T03:53:39;0.40;1.00
17992;DHT22;9121;50.926;5.340;2023-03-01T03:56:06;0.40;1.00
17992;DHT22;9121;50.926;5.340;2023-03-01T03:58:34;0.50;1.00
17992;DHT22;9121;50.926;5.340;2023-03-01T04:01:01;0.40;1.00
17992;DHT22;9121;50.926;5.340;2023-03-01T04:03:29;0.40;1.00
17992;DHT22;9121;50.926;5.340;2023-03-01T04:05:57;0.40;1.00
17992;DHT22;9121;50.926;5.340;2023-03-01T04:08:27;0.40;1.00
17992;DHT22;9121;50.926;5.340;2023-03-01T04:10:57;0.50;1.00
17992;DHT22;9121;50.926;5.340;2023-03-01T04:13:24;0.40;1.00
17992;DHT22;9121;50.926;5.340;2023-03-01T04:15:52;0.30;1.00
17992;DHT22;9121;50.926;5.340;2023-03-01T04:18:21;0.30;1.00
17992;DHT22;9121;50.926;5.340;2023-03-01T04:20:49;0.30;1.00
17992;DHT22;9121;50.926;5.340;2023-03-01T04:23:18;0.40;1.00
17992;DHT22;9121;50.926;5.340;2023-03-01T04:25:49;0.30;1.00
17992;DHT22;9121;50.926;5.340;2023-03-01T04:28:20;0.30;1.00
17992;DHT22;9121;50.926;5.340;2023-03-01T04:30:47;0.30;1.00
17992;DHT22;9121;50.926;5.340;2023-03-01T04:33:14;0.40;1.00
17992;DHT22;9121;50.926;5.340;2023-03-01T04:35:41;0.40;1.00
17992;DHT22;9121;50.926;5.340;2023-03-01T04:38:08;0.40;1.00
17992;DHT22;9121;50.926;5.340;2023-03-01T04:40:36;0.40;1.00
17992;DHT22;9121;50.926;5.340;2023-03-01T04:43:04;0.40;1.00
17992;DHT22;9121;50.926;5.340;2023-03-01T04:45:32;0.40;1.00
17992;DHT22;9121;50.926;5.340;2023-03-01T04:48:01;0.40;1.00
17992;DHT22;9121;50.926;5.340;2023-03-01T04:50:28;0.30;1.00
17992;DHT22;9121;50.926;5.340;2023-03-01T04:52:55;0.30;1.00
17992;DHT22;9121;50.926;5.340;2023-03-01T04:55:24;0.30;1.00
17992;DHT22;9121;50.926;5.340;2023-03-01T04:57:52;0.30;1.00
17992;DHT22;9121;50.926;5.340;2023-03-01T05:00:21;0.30;1.00
17992;DHT22;9121;50.926;5.340;2023-03-01T05:02:50;0.30;1.00
17992;DHT22;9121;50.926;5.340;2023-03-01T05:05:25;0.30;1.00
17992;DHT22;9121;50.926;5.340;2023-03-01T05:07:54;0.20;1.00
17992;DHT22;9121;50.926;5.340;2023-03-01T05:10:21;0.20;1.00
17992;DHT22;9121;50.926;5.340;2023-03-01T05:12:48;0.20;1.00
17992;DHT22;9121;50.926;5.340;2023-03-01T05:15:15;0.20;1.00
17992;DHT22;9121;50.926;5.340;2023-03-01T05:17:44;0.10;1.00
17992;DHT22;9121;50.926;5.340;2023-03-01T05:20:11;0.10;1.00
17992;DHT22;9121;50.926;5.340;2023-03-01T05:22:38;0.10;1.00
17992;DHT22;9121;50.926;5.340;2023-03-01T05:25:06;0.10;1.00
17992;DHT22;9121;50.926;5.340;2023-03-01T05:27:34;0.10;1.00
17992;DHT22;9121;50.926;5.340;2023-03-01T05:30:01;0.00;1.00
17992;DHT22;9121;50.926;5.340;2023-03-01T05:32:40;-0.10;1.00
17992;DHT22;9121;50.926;5.340;2023-03-01T05:35:10;-0.10;1.00
17992;DHT22;9121;50.926;5.340;2023-03-01T05:37:41;-0.20;1.00
17992;DHT22;9121;50.926;5.340;2023-03-01T05:40:10;-0.10;1.00
17992;DHT22;9121;50.926;5.340;2023-03-01T05:42:45;-0.10;1.00
17992;DHT22;9121;50.926;5.340;2023-03-01T05:45:13;-0.10;1.00
17992;DHT22;9121;50.926;5.340;2023-03-01T05:47:40;-0.10;1.00
17992;DHT22;9121;50.926;5.340;2023-03-01T05:50:12;-0.20;1.00
17992;DHT22;9121;50.926;5.340;2023-03-01T05:52:43;-0.10;1.00
17992;DHT22;9121;50.926;5.340;2023-03-01T05:55:10;-0.10;1.00
17992;DHT22;9121;50.926;5.340;2023-03-01T05:57:37;-0.20;1.00
17992;DHT22;9121;50.926;5.340;2023-03-01T06:00:05;-0.20;1.00
17992;DHT22;9121;50.926;5.340;2023-03-01T06:02:32;-0.10;1.00
17992;DHT22;9121;50.926;5.340;2023-03-01T06:04:59;-0.20;1.00
17992;DHT22;9121;50.926;5.340;2023-03-01T06:07:28;-0.20;1.00
17992;DHT22;9121;50.926;5.340;2023-03-01T06:09:55;-0.20;1.00
17992;DHT22;9121;50.926;5.340;2023-03-01T06:12:22;-0.40;1.80
17992;DHT22;9121;50.926;5.340;2023-03-01T06:14:49;-0.30;3.40
17992;DHT22;9121;50.926;5.340;2023-03-01T06:17:16;-0.30;6.80
17992;DHT22;9121;50.926;5.340;2023-03-01T06:19:43;-0.40;3.60
17992;DHT22;9121;50.926;5.340;2023-03-01T06:22:10;-0.40;6.70
17992;DHT22;9121;50.926;5.340;2023-03-01T06:24:38;-0.50;8.90
17992;DHT22;9121;50.926;5.340;2023-03-01T06:27:05;-0.40;13.50
17992;DHT22;9121;50.926;5.340;2023-03-01T06:29:32;-0.40;10.40
17992;DHT22;9121;50.926;5.340;2023-03-01T06:31:59;-0.40;3.90
17992;DHT22;9121;50.926;5.340;2023-03-01T06:34:26;-0.30;7.70
17992;DHT22;9121;50.926;5.340;2023-03-01T06:36:53;-0.40;4.00
17992;DHT22;9121;50.926;5.340;2023-03-01T06:39:20;-0.30;7.60
17992;DHT22;9121;50.926;5.340;2023-03-01T06:41:48;-0.40;5.50
17992;DHT22;9121;50.926;5.340;2023-03-01T06:44:15;-0.40;3.10
17992;DHT22;9121;50.926;5.340;2023-03-01T06:46:42;-0.40;3.50
17992;DHT22;9121;50.926;5.340;2023-03-01T06:49:09;-0.40;11.80
17992;DHT22;9121;50.926;5.340;2023-03-01T06:51:36;-0.40;7.10
17992;DHT22;9121;50.926;5.340;2023-03-01T06:54:04;-0.30;20.30
17992;DHT22;9121;50.926;5.340;2023-03-01T06:56:31;-0.30;9.30
17992;DHT22;9121;50.926;5.340;2023-03-01T06:59:00;-0.10;6.30
17992;DHT22;9121;50.926;5.340;2023-03-01T07:01:28;0.00;1.00
17992;DHT22;9121;50.926;5.340;2023-03-01T07:03:55;0.00;1.00
17992;DHT22;9121;50.926;5.340;2023-03-01T07:06:23;0.00;1.00
17992;DHT22;9121;50.926;5.340;2023-03-01T07:08:50;0.00;1.00
17992;DHT22;9121;50.926;5.340;2023-03-01T07:11:17;0.10;1.00
17992;DHT22;9121;50.926;5.340;2023-03-01T07:13:44;0.00;1.00
17992;DHT22;9121;50.926;5.340;2023-03-01T07:16:12;0.00;1.00
17992;DHT22;9121;50.926;5.340;2023-03-01T07:18:40;0.10;1.00
17992;DHT22;9121;50.926;5.340;2023-03-01T07:21:09;0.00;1.00
17992;DHT22;9121;50.926;5.340;2023-03-01T07:23:36;0.10;1.00
17992;DHT22;9121;50.926;5.340;2023-03-01T07:26:03;0.10;1.00
17992;DHT22;9121;50.926;5.340;2023-03-01T07:28:30;0.00;1.00
17992;DHT22;9121;50.926;5.340;2023-03-01T07:31:01;0.10;1.00
17992;DHT22;9121;50.926;5.340;2023-03-01T07:33:30;0.20;1.00
17992;DHT22;9121;50.926;5.340;2023-03-01T07:35:57;0.30;1.00
17992;DHT22;9121;50.926;5.340;2023-03-01T07:38:24;0.30;1.00
17992;DHT22;9121;50.926;5.340;2023-03-01T07:40:51;0.40;1.00
17992;DHT22;9121;50.926;5.340;2023-03-01T07:43:19;0.50;1.00
17992;DHT22;9121;50.926;5.340;2023-03-01T07:45:46;0.50;1.00
17992;DHT22;9121;50.926;5.340;2023-03-01T07:48:13;0.50;1.00
17992;DHT22;9121;50.926;5.340;2023-03-01T07:50:41;0.50;1.00
17992;DHT22;9121;50.926;5.340;2023-03-01T07:53:08;0.50;1.00
17992;DHT22;9121;50.926;5.340;2023-03-01T07:55:35;0.60;1.00
17992;DHT22;9121;50.926;5.340;2023-03-01T07:58:03;0.70;1.00
17992;DHT22;9121;50.926;5.340;2023-03-01T08:00:32;0.70;1.00
17992;DHT22;9121;50.926;5.340;2023-03-01T08:03:00;0.70;1.00
17992;DHT22;9121;50.926;5.340;2023-03-01T08:05:27;0.70;1.00
17992;DHT22;9121;50.926;5.340;2023-03-01T08:07:55;0.70;1.00
17992;DHT22;9121;50.926;5.340;2023-03-01T08:10:22;0.80;1.00
17992;DHT22;9121;50.926;5.340;2023-03-01T08:12:51;0.80;1.00
17992;DHT22;9121;50.926;5.340;2023-03-01T08:15:19;1.00;1.00
17992;DHT22;9121;50.926;5.340;2023-03-01T08:17:49;1.00;1.00
17992;DHT22;9121;50.926;5.340;2023-03-01T08:20:16;1.10;1.00
17992;DHT22;9121;50.926;5.340;2023-03-01T08:22:43;1.20;1.00
17992;DHT22;9121;50.926;5.340;2023-03-01T08:25:12;1.30;1.00
17992;DHT22;9121;50.926;5.340;2023-03-01T08:27:39;1.40;1.00
17992;DHT22;9121;50.926;5.340;2023-03-01T08:30:07;1.50;1.00
17992;DHT22;9121;50.926;5.340;2023-03-01T08:32:38;1.50;1.00
17992;DHT22;9121;50.926;5.340;2023-03-01T08:35:06;1.70;1.00
17992;DHT22;9121;50.926;5.340;2023-03-01T08:37:33;2.00;1.00
17992;DHT22;9121;50.926;5.340;2023-03-01T08:40:00;2.30;1.00
17992;DHT22;9121;50.926;5.340;2023-03-01T08:42:30;2.50;1.00
17992;DHT22;9121;50.926;5.340;2023-03-01T08:44:57;2.40;1.00
17992;DHT22;9121;50.926;5.340;2023-03-01T08:47:24;2.20;1.00
17992;DHT22;9121;50.926;5.340;2023-03-01T08:49:51;2.30;1.00
17992;DHT22;9121;50.926;5.340;2023-03-01T08:52:19;2.50;1.00
17992;DHT22;9121;50.926;5.340;2023-03-01T08:54:47;2.60;1.00
17992;DHT22;9121;50.926;5.340;2023-03-01T08:57:14;2.70;1.00
17992;DHT22;9121;50.926;5.340;2023-03-01T08:59:42;2.80;1.00
17992;DHT22;9121;50.926;5.340;2023-03-01T09:02:12;2.90;1.00
17992;DHT22;9121;50.926;5.340;2023-03-01T09:04:40;3.10;1.00
17992;DHT22;9121;50.926;5.340;2023-03-01T09:07:07;3.00;1.00
17992;DHT22;9121;50.926;5.340;2023-03-01T09:09:34;3.10;1.00
17992;DHT22;9121;50.926;5.340;2023-03-01T09:12:02;3.10;1.00
17992;DHT22;9121;50.926;5.340;2023-03-01T09:14:29;3.00;1.00
17992;DHT22;9121;50.926;5.340;2023-03-01T09:16:57;3.00;1.00
17992;DHT22;9121;50.926;5.340;2023-03-01T09:19:28;3.00;1.00
17992;DHT22;9121;50.926;5.340;2023-03-01T09:21:55;3.10;1.00
17992;DHT22;9121;50.926;5.340;2023-03-01T09:24:24;3.10;1.00
17992;DHT22;9121;50.926;5.340;2023-03-01T09:26:53;3.10;1.00
17992;DHT22;9121;50.926;5.340;2023-03-01T09:29:21;3.20;1.00
17992;DHT22;9121;50.926;5.340;2023-03-01T09:31:48;3.40;1.00
17992;DHT22;9121;50.926;5.340;2023-03-01T09:34:16;3.40;1.00
17992;DHT22;9121;50.926;5.340;2023-03-01T09:36:48;3.40;1.00
17992;DHT22;9121;50.926;5.340;2023-03-01T09:39:15;3.50;1.00
17992;DHT22;9121;50.926;5.340;2023-03-01T09:41:46;3.50;1.00
17992;DHT22;9121;50.926;5.340;2023-03-01T09:44:34;3.60;1.00
17992;DHT22;9121;50.926;5.340;2023-03-01T09:47:03;3.60;1.00
17992;DHT22;9121;50.926;5.340;2023-03-01T09:49:33;3.70;1.00
17992;DHT22;9121;50.926;5.340;2023-03-01T09:52:11;3.70;1.00
17992;DHT22;9121;50.926;5.340;2023-03-01T09:54:38;3.80;1.00
17992;DHT22;9121;50.926;5.340;2023-03-01T09:57:16;3.60;1.00
17992;DHT22;9121;50.926;5.340;2023-03-01T10:00:08;3.70;1.00
17992;DHT22;9121;50.926;5.340;2023-03-01T10:02:41;3.70;1.00
17992;DHT22;9121;50.926;5.340;2023-03-01T10:05:33;3.70;1.00
17992;DHT22;9121;50.926;5.340;2023-03-01T10:08:30;3.70;1.00
17992;DHT22;9121;50.926;5.340;2023-03-01T10:11:02;3.80;1.00
17992;DHT22;9121;50.926;5.340;2023-03-01T10:13:35;3.90;1.00
17992;DHT22;9121;50.926;5.340;2023-03-01T10:16:10;4.00;1.00
17992;DHT22;9121;50.926;5.340;2023-03-01T10:18:39;4.00;1.00
17992;DHT22;9121;50.926;5.340;2023-03-01T10:21:14;4.10;1.00
17992;DHT22;9121;50.926;5.340;2023-03-01T10:23:42;4.10;1.00
17992;DHT22;9121;50.926;5.340;2023-03-01T10:26:31;4.20;1.00
17992;DHT22;9121;50.926;5.340;2023-03-01T10:29:02;4.30;1.00
17992;DHT22;9121;50.926;5.340;2023-03-01T10:31:38;4.20;1.00
17992;DHT22;9121;50.926;5.340;2023-03-01T10:34:10;4.30;1.00
17992;DHT22;9121;50.926;5.340;2023-03-01T10:36:39;4.30;1.00
17992;DHT22;9121;50.926;5.340;2023-03-01T10:39:13;4.30;1.00
17992;DHT22;9121;50.926;5.340;2023-03-01T10:41:52;4.30;1.00
17992;DHT22;9121;50.926;5.340;2023-03-01T10:44:42;4.30;1.00
17992;DHT22;9121;50.926;5.340;2023-03-01T10:47:20;4.50;1.00
17992;DHT22;9121;50.926;5.340;2023-03-01T10:49:54;4.60;1.00
17992;DHT22;9121;50.926;5.340;2023-03-01T10:52:25;4.70;1.00
17992;DHT22;9121;50.926;5.340;2023-03-01T10:54:54;4.90;1.00
17992;DHT22;9121;50.926;5.340;2023-03-01T10:57:31;4.80;1.00
17992;DHT22;9121;50.926;5.340;2023-03-01T11:00:14;4.70;1.00
17992;DHT22;9121;50.926;5.340;2023-03-01T11:02:42;4.50;1.00
17992;DHT22;9121;50.926;5.340;2023-03-01T11:05:19;4.60;1.00
17992;DHT22;9121;50.926;5.340;2023-03-01T11:07:49;4.80;1.00
17992;DHT22;9121;50.926;5.340;2023-03-01T11:10:18;4.90;1.00
17992;DHT22;9121;50.926;5.340;2023-03-01T11:12:45;5.00;1.00
17992;DHT22;9121;50.926;5.340;2023-03-01T11:15:24;5.10;1.00
17992;DHT22;9121;50.926;5.340;2023-03-01T11:17:52;5.20;1.00
17992;DHT22;9121;50.926;5.340;2023-03-01T11:20:29;5.30;1.00
17992;DHT22;9121;50.926;5.340;2023-03-01T11:23:02;5.50;1.00
17992;DHT22;9121;50.926;5.340;2023-03-01T11:25:33;5.50;1.00
17992;DHT22;9121;50.926;5.340;2023-03-01T11:28:04;5.60;1.00
17992;DHT22;9121;50.926;5.340;2023-03-01T11:30:35;5.50;1.00
17992;DHT22;9121;50.926;5.340;2023-03-01T11:33:15;5.70;1.00
17992;DHT22;9121;50.926;5.340;2023-03-01T11:35:49;5.90;1.00
17992;DHT22;9121;50.926;5.340;2023-03-01T11:38:23;6.10;1.00
17992;DHT22;9121;50.926;5.340;2023-03-01T11:40:54;6.00;1.00
17992;DHT22;9121;50.926;5.340;2023-03-01T11:43:33;6.00;1.00
17992;DHT22;9121;50.926;5.340;2023-03-01T11:46:27;6.00;1.00
17992;DHT22;9121;50.926;5.340;2023-03-01T11:49:09;5.90;1.00
17992;DHT22;9121;50.926;5.340;2023-03-01T11:51:47;6.10;1.00
17992;DHT22;9121;50.926;5.340;2023-03-01T11:54:27;6.10;99.90
17992;DHT22;9121;50.926;5.340;2023-03-01T11:56:59;6.40;99.90
17992;DHT22;9121;50.926;5.340;2023-03-01T11:59:49;6.60;59.10
17992;DHT22;9121;50.926;5.340;2023-03-01T12:05:41;6.50;1.00
17992;DHT22;9121;50.926;5.340;2023-03-01T12:08:15;6.60;1.00
17992;DHT22;9121;50.926;5.340;2023-03-01T12:10:52;6.80;1.00
17992;DHT22;9121;50.926;5.340;2023-03-01T12:13:42;6.80;99.90
17992;DHT22;9121;50.926;5.340;2023-03-01T12:16:22;6.80;99.90
17992;DHT22;9121;50.926;5.340;2023-03-01T12:19:10;7.10;99.90
17992;DHT22;9121;50.926;5.340;2023-03-01T12:21:53;7.30;1.00
17992;DHT22;9121;50.926;5.340;2023-03-01T12:24:40;7.40;99.90
17992;DHT22;9121;50.926;5.340;2023-03-01T12:27:26;7.40;99.90
17992;DHT22;9121;50.926;5.340;2023-03-01T12:30:03;7.40;99.90
17992;DHT22;9121;50.926;5.340;2023-03-01T12:32:54;7.20;99.90
17992;DHT22;9121;50.926;5.340;2023-03-01T12:38:28;7.10;99.90
17992;DHT22;9121;50.926;5.340;2023-03-01T12:41:21;7.20;1.00
17992;DHT22;9121;50.926;5.340;2023-03-01T12:44:03;7.70;1.00
17992;DHT22;9121;50.926;5.340;2023-03-01T12:46:45;8.40;1.00
17992;DHT22;9121;50.926;5.340;2023-03-01T12:49:21;9.00;1.00
17992;DHT22;9121;50.926;5.340;2023-03-01T12:51:54;9.20;1.00
17992;DHT22;9121;50.926;5.340;2023-03-01T12:54:26;9.50;1.00
17992;DHT22;9121;50.926;5.340;2023-03-01T12:56:55;9.30;99.90
17992;DHT22;9121;50.926;5.340;2023-03-01T12:59:31;9.40;1.00
17992;DHT22;9121;50.926;5.340;2023-03-01T13:02:05;9.80;1.00
17992;DHT22;9121;50.926;5.340;2023-03-01T13:04:52;10.30;99.90
17992;DHT22;9121;50.926;5.340;2023-03-01T13:07:30;10.90;1.00
17992;DHT22;9121;50.926;5.340;2023-03-01T13:10:11;11.00;99.90
17992;DHT22;9121;50.926;5.340;2023-03-01T13:12:52;11.40;1.00
17992;DHT22;9121;50.926;5.340;2023-03-01T13:15:34;11.30;1.00
17992;DHT22;9121;50.926;5.340;2023-03-01T13:18:04;11.50;1.00
17992;DHT22;9121;50.926;5.340;2023-03-01T13:20:52;11.50;1.00
17992;DHT22;9121;50.926;5.340;2023-03-01T13:23:28;11.20;99.90
17992;DHT22;9121;50.926;5.340;2023-03-01T13:26:10;11.10;99.90
17992;DHT22;9121;50.926;5.340;2023-03-01T13:32:01;11.20;1.00
17992;DHT22;9121;50.926;5.340;2023-03-01T13:34:44;11.30;1.00
17992;DHT22;9121;50.926;5.340;2023-03-01T13:37:20;11.50;99.90
17992;DHT22;9121;50.926;5.340;2023-03-01T13:39:46;11.00;99.90
17992;DHT22;9121;50.926;5.340;2023-03-01T13:42:39;10.40;99.90
17992;DHT22;9121;50.926;5.340;2023-03-01T13:45:20;10.10;99.90
17992;DHT22;9121;50.926;5.340;2023-03-01T13:47:53;10.00;99.90
17992;DHT22;9121;50.926;5.340;2023-03-01T13:50:25;9.90;99.90
17992;DHT22;9121;50.926;5.340;2023-03-01T13:52:55;9.90;99.90
17992;DHT22;9121;50.926;5.340;2023-03-01T13:55:29;9.60;99.90
17992;DHT22;9121;50.926;5.340;2023-03-01T13:58:01;9.50;99.90
17992;DHT22;9121;50.926;5.340;2023-03-01T14:00:36;9.30;99.90
17992;DHT22;9121;50.926;5.340;2023-03-01T14:03:10;9.10;1.00
17992;DHT22;9121;50.926;5.340;2023-03-01T14:05:38;9.20;1.00
17992;DHT22;9121;50.926;5.340;2023-03-01T14:08:14;9.70;1.00
17992;DHT22;9121;50.926;5.340;2023-03-01T14:10:53;9.60;99.90
17992;DHT22;9121;50.926;5.340;2023-03-01T14:13:30;9.30;99.90
17992;DHT22;9121;50.926;5.340;2023-03-01T14:16:16;9.10;1.00
17992;DHT22;9121;50.926;5.340;2023-03-01T14:18:54;9.50;1.00
17992;DHT22;9121;50.926;5.340;2023-03-01T14:21:22;9.20;99.90
17992;DHT22;9121;50.926;5.340;2023-03-01T14:23:51;9.10;99.90
17992;DHT22;9121;50.926;5.340;2023-03-01T14:26:21;9.60;99.90
17992;DHT22;9121;50.926;5.340;2023-03-01T14:28:49;9.70;99.90
17992;DHT22;9121;50.926;5.340;2023-03-01T14:31:32;9.70;99.90
17992;DHT22;9121;50.926;5.340;2023-03-01T14:34:03;9.10;99.90
17992;DHT22;9121;50.926;5.340;2023-03-01T14:36:32;8.60;99.90
17992;DHT22;9121;50.926;5.340;2023-03-01T14:39:00;8.50;99.90
17992;DHT22;9121;50.926;5.340;2023-03-01T14:41:33;8.50;1.00
17992;DHT22;9121;50.926;5.340;2023-03-01T14:44:03;8.30;1.00
17992;DHT22;9121;50.926;5.340;2023-03-01T14:46:34;8.20;1.00
17992;DHT22;9121;50.926;5.340;2023-03-01T14:49:06;8.20;1.00
17992;DHT22;9121;50.926;5.340;2023-03-01T14:51:37;8.00;1.00
17992;DHT22;9121;50.926;5.340;2023-03-01T14:54:18;7.90;1.00
17992;DHT22;9121;50.926;5.340;2023-03-01T14:56:47;7.80;1.00
17992;DHT22;9121;50.926;5.340;2023-03-01T14:59:14;7.70;1.00
17992;DHT22;9121;50.926;5.340;2023-03-01T15:01:42;7.80;1.00
17992;DHT22;9121;50.926;5.340;2023-03-01T15:04:13;7.80;1.00
17992;DHT22;9121;50.926;5.340;2023-03-01T15:06:41;7.90;1.00
17992;DHT22;9121;50.926;5.340;2023-03-01T15:09:13;7.70;1.00
17992;DHT22;9121;50.926;5.340;2023-03-01T15:11:43;7.60;1.00
17992;DHT22;9121;50.926;5.340;2023-03-01T15:14:26;7.70;33.20
17992;DHT22;9121;50.926;5.340;2023-03-01T15:16:54;7.50;78.00
17992;DHT22;9121;50.926;5.340;2023-03-01T15:19:24;7.40;99.90
17992;DHT22;9121;50.926;5.340;2023-03-01T15:21:55;7.30;99.90
17992;DHT22;9121;50.926;5.340;2023-03-01T15:24:25;7.30;99.90
17992;DHT22;9121;50.926;5.340;2023-03-01T15:26:56;7.40;99.90
17992;DHT22;9121;50.926;5.340;2023-03-01T15:29:29;7.40;99.90
17992;DHT22;9121;50.926;5.340;2023-03-01T15:32:00;7.30;99.90
17992;DHT22;9121;50.926;5.340;2023-03-01T15:34:32;7.40;99.90
17992;DHT22;9121;50.926;5.340;2023-03-01T15:37:00;7.40;99.90
17992;DHT22;9121;50.926;5.340;2023-03-01T15:39:33;7.30;99.90
17992;DHT22;9121;50.926;5.340;2023-03-01T15:42:04;7.30;99.90
17992;DHT22;9121;50.926;5.340;2023-03-01T15:44:33;7.30;99.90
17992;DHT22;9121;50.926;5.340;2023-03-01T15:47:01;7.30;1.00
17992;DHT22;9121;50.926;5.340;2023-03-01T15:49:36;7.40;1.00
17992;DHT22;9121;50.926;5.340;2023-03-01T15:52:06;7.40;1.00
17992;DHT22;9121;50.926;5.340;2023-03-01T15:54:36;7.40;1.00
17992;DHT22;9121;50.926;5.340;2023-03-01T15:57:03;7.50;99.90
17992;DHT22;9121;50.926;5.340;2023-03-01T15:59:30;7.50;99.90
17992;DHT22;9121;50.926;5.340;2023-03-01T16:01:57;7.30;99.90
17992;DHT22;9121;50.926;5.340;2023-03-01T16:04:24;7.30;98.50
17992;DHT22;9121;50.926;5.340;2023-03-01T16:06:53;7.30;14.70
17992;DHT22;9121;50.926;5.340;2023-03-01T16:09:22;7.20;19.40
17992;DHT22;9121;50.926;5.340;2023-03-01T16:11:50;7.30;63.80
17992;DHT22;9121;50.926;5.340;2023-03-01T16:14:17;7.20;99.90
17992;DHT22;9121;50.926;5.340;2023-03-01T16:16:45;7.20;82.30
17992;DHT22;9121;50.926;5.340;2023-03-01T16:19:13;7.10;12.60
17992;DHT22;9121;50.926;5.340;2023-03-01T16:21:41;7.00;81.40
17992;DHT22;9121;50.926;5.340;2023-03-01T16:24:10;6.90;99.90
17992;DHT22;9121;50.926;5.340;2023-03-01T16:26:37;6.90;99.90
17992;DHT22;9121;50.926;5.340;2023-03-01T16:29:05;6.90;99.90
17992;DHT22;9121;50.926;5.340;2023-03-01T16:31:32;6.90;99.90
17992;DHT22;9121;50.926;5.340;2023-03-01T16:33:59;6.90;99.90
17992;DHT22;9121;50.926;5.340;2023-03-01T16:36:27;7.00;99.90
17992;DHT22;9121;50.926;5.340;2023-03-01T16:38:55;6.90;99.90
17992;DHT22;9121;50.926;5.340;2023-03-01T16:41:26;6.90;1.00
17992;DHT22;9121;50.926;5.340;2023-03-01T16:43:53;6.90;1.00
17992;DHT22;9121;50.926;5.340;2023-03-01T16:46:22;6.80;1.00